ニノイ・アキノ国際空港 の過去48時間の天気

ニノイ・アキノ国際空港 (Ninoy Aquino Inter-National Airport)

現在時刻: 9/28 15:46 PST (9/28 07:46 UTC) 以下の時間は現地時間です。

過去48時間のMETAR気象情報
時間 風向 風速(m/s) 視程 気温(℃) 湿度(%) 気圧(hPa) 天気現象
28 15:00 西 6 10km以上 32 67 1007
28 14:00 西 5 10km以上 33 67 1008
28 13:00 西 4 10km以上 32 71 1009 弱いしゅう雨
28 12:00 西北西 3 10km以上 33 67 1010
28 11:00 3 10km以上 31 75 1011
28 10:00 西北西 3 10km以上 30 75 1011
28 09:20 西北西 3 10km以上 30 75 1011 弱いしゅう雨
28 09:00 不定 1 10km以上 31 70 1011
28 08:00 東南東 2 10km以上 31 75 1011
28 07:00 不定 1 10km以上 29 84 1010
28 06:00 東北東 2 10km以上 27 94 1010
28 05:00 不定 1 10km以上 27 94 1009
28 04:00 不定 1 10km以上 27 89 1009
28 03:00 南南西 2 10km以上 28 89 1009
28 02:00 西南西 1 10km以上 28 89 1009
28 01:00 不定 1 10km以上 28 89 1010
28 00:00 南西 2 10km以上 28 84 1011
27 23:00 南西 2 10km以上 28 84 1011
27 22:00 南西 2 10km以上 29 74 1011
27 21:00 2 10km以上 29 79 1011
27 20:00 西南西 2 10km以上 30 70 1010
27 19:00 不定 1 10km以上 30 70 1009
27 18:00 西南西 3 10km以上 30 75 1008
27 17:00 西南西 2 10km以上 31 70 1008
27 16:00 西 5 10km以上 31 70 1007
27 15:00 不定 2 10km以上 33 67 1007
27 14:00 3 10km以上 34 60 1007
27 13:00 3 10km以上 35 56 1008
27 12:00 3 10km以上 34 60 1009
27 11:00 東南東 3 10km以上 33 59 1010
27 10:00 3 10km以上 33 63 1011
27 09:00 南南東 3 10km以上 32 67 1011
27 08:00 東北東 2 - 28 84 1011 弱いしゅう雨
27 07:00 不定 1 10km以上 29 84 1009
27 06:00 不定 1 10km以上 27 89 1009
27 05:00 静穏 0 10km以上 27 89 1008
27 04:00 静穏 0 10km以上 27 89 1008
27 03:00 静穏 0 10km以上 28 84 1009
27 02:00 静穏 0 10km以上 28 84 1009
27 01:00 静穏 0 10km以上 28 84 1009
27 00:00 西 1 10km以上 28 84 1010
26 23:00 不定 1 10km以上 28 84 1010
26 21:00 静穏 0 10km以上 28 84 1010
26 20:00 不定 1 10km以上 28 84 1009
26 19:00 南南西 2 10km以上 28 79 1008
26 18:00 南西 2 10km以上 29 79 1008
26 17:00 南西 2 10km以上 29 79 1007
26 16:00 西南西 4 10km以上 28 84 1006
RPLL 280700Z 26011KT 9999 FEW023CB SCT025 BKN100 32/25 Q1007 NOSIG RMK A2974 CB S
RPLL 280600Z 28009KT 250V320 9999 SCT025 33/26 Q1008 RESHRA NOSIG RMK A2977
RPLL 280500Z 28008KT 240V320 9999 -SHRA FEW023CB SCT025 BKN080 32/26 Q1009 NOSIG RMK A2980 CB SE
RPLL 280400Z 30005KT 270V340 9999 FEW025TCU SCT100 33/26 Q1010 NOSIG RMK A2983 TCU NE SE
RPLL 280300Z 35006KT 310V030 9999 FEW025 SCT100 31/26 Q1011 NOSIG RMK A2985
RPLL 280200Z 29005KT 9999 FEW023TCU SCT025 BKN080 30/25 Q1011 RESHRA NOSIG RMK A2985 TCU SE
RPLL 280120Z 29005KT 9999 -SHRA FEW022TCU SCT023 BKN080 30/25 Q1011 NOSIG RMK A2985 TCU SW
RPLL 280100Z VRB01KT 9999 SCT025 SCT100 31/25 Q1011 NOSIG RMK A2985
RPLL 280000Z 12003KT 080V190 9999 FEW020 31/26 Q1011 NOSIG RMK A2985
RPLL 272300Z VRB01KT 9999 FEW023 29/26 Q1010 NOSIG RMK A2983
RPLL 272200Z 07003KT 9999 FEW023 SCT100 BKN300 27/26 Q1010 NOSIG RMK A2983
RPLL 272100Z VRB02KT 9999 FEW023 SCT100 27/26 Q1009 NOSIG RMK A2980
RPLL 272000Z VRB01KT 9999 FEW023 SCT080 27/25 Q1009 NOSIG RMK A2980
RPLL 271900Z 21003KT 9999 FEW023 28/26 Q1009 NOSIG RMK A2980
RPLL 271800Z 25002KT 9999 FEW025 SCT250 28/26 Q1009 NOSIG RMK A2980
RPLL 271700Z VRB02KT 9999 FEW025 SCT100 28/26 Q1010 NOSIG RMK A2983
RPLL 271600Z 23003KT 200V260 9999 FEW025 SCT100 28/25 Q1011 NOSIG RMK A2985
RPLL 271500Z 22004KT 180V250 9999 FEW023CB 28/25 Q1011 NOSIG RMK A2985
RPLL 271400Z 22004KT 9999 FEW023CB SCT025 BKN100 29/24 Q1011 NOSIG RMK A2985 CB NW
RPLL 271300Z 19003KT 130V250 9999 FEW023CB SCT025 BKN100 29/25 Q1011 NOSIG RMK A2985 CB W-NW
RPLL 271200Z 24004KT 9999 FEW023CB SCT025 BKN090 30/24 Q1010 NOSIG RMK A2983 CB SW
RPLL 271100Z VRB01KT 9999 FEW023CB FEW025 BKN100 30/24 Q1009 NOSIG RMK A2980 CB/ LTG S- SW N NE
RPLL 271000Z 24005KT 210V270 9999 SCT025 30/25 Q1008 NOSIG RMK A2977
RPLL 270900Z 24004KT 200V270 9999 FEW025 ST250 31/25 Q1008 NOSIG RMK A2977
RPLL 270800Z 26009KT 9999 FEW023CB SCT025 BKN250 31/25 Q1007 NOSIG RMK A2974 CB N
RPLL 270700Z VRB04KT 9999 FEW023CB FEW025 SCT250 33/26 Q1007 NOSIG RMK A2974 CB SW
RPLL 270600Z 09006KT 040V190 9999 FEW023CB SCT025 SCT250 34/25 Q1007 NOSIG RMK A2974 CB E -SW
RPLL 270500Z VRB05KT 9999 FEW025 SCT300 35/25 Q1008 NOSIG RMK A2977
RPLL 270400Z VRB05KT 9999 FEW025 34/25 Q1009 NOSIG RMK A2980
RPLL 270300Z 11005KT 030V190 9999 FEW025 33/24 Q1010 NOSIG RMK A2983
RPLL 270200Z VRB05KT 9999 FEW025 SCT100 33/25 Q1011 NOSIG RMK A2985
RPLL 270100Z 15005KT 060V230 9999 FEW025 SCT100 32/25 Q1011 NOSIG RMK A2985
RPLL 260000Z 06004KT 030V090 -SHRA FEW016CB FEW017 BKN090 28/25 Q1011 RMK A2985 CB NE
RPLL 262300Z VRB01KT 9999 FEW025 BKN280 29/26 Q1009 NOSIG RMK A2980
RPLL 262200Z VRB02KT 9999 FEW025 BKN280 27/25 Q1009 NOSIG RMK A2980
RPLL 262100Z 00000KT 9999 FEW025 27/25 Q1008 NOSIG RMK A2977
RPLL 262000Z 00000KT 9999 FEW025 27/25 Q1008 NOSIG RMK A2977
RPLL 261900Z 00000KT 9999 FEW025 28/25 Q1009 NOSIG RMK A2980
RPLL 261800Z 00000KT 9999 FEW025 SCT090 28/25 Q1009 NOSIG RMK A2980
RPLL 261700Z 00000KT 9999 FEW025 BKN090 28/25 Q1009 NOSIG RMK A2980
RPLL 261600Z 27002KT 9999 FEW025 SCT100 28/25 Q1010 NOSIG RMK A2983
RPLL 261500Z VRB02KT 9999 FEW025 SCT100 28/25 Q1010 NOSIG RMK A2983
RPLL 261300Z 00000KT 9999 FEW025 BKN100 28/25 Q1010 NOSIG RMK A2983
RPLL 261200Z VRB02KT 9999 FEW023CB SCT025 BKN100 28/25 Q1009 NOSIG RMK A2980 CB N
RPLL 261100Z 20003KT 160V240 9999 FEW025 BKN100 28/24 Q1008 NOSIG RMK A2977
RPLL 261000Z 22004KT 190V250 9999 FEW023CB SCT025 BKN100 29/25 Q1008 NOSIG RMK A2977 CB E SW
RPLL 260900Z 23003KT 200V270 9999 FEW023CB SCT025 BKN100 29/25 Q1007 NOSIG RMK A2974 CB N S
RPLL 260800Z 25007KT 210V280 9999 FEW023 SCT025 BKN100 28/25 Q1006 RETS TEMPO VCSH RMK A2971MCB N-NE